sensor_id;sensor_type;location;lat;lon;timestamp;P1;durP1;ratioP1;P2;durP2;ratioP2
57551;SDS011;43379;48.160;14.036;2023-06-26T00:00:15;13.83;;;12.40;;
57551;SDS011;43379;48.160;14.036;2023-06-26T00:02:41;13.00;;;11.70;;
57551;SDS011;43379;48.160;14.036;2023-06-26T00:05:07;12.93;;;11.83;;
57551;SDS011;43379;48.160;14.036;2023-06-26T00:07:33;13.47;;;12.37;;
57551;SDS011;43379;48.160;14.036;2023-06-26T00:09:59;12.00;;;11.00;;
57551;SDS011;43379;48.160;14.036;2023-06-26T00:12:25;13.43;;;12.33;;
57551;SDS011;43379;48.160;14.036;2023-06-26T00:14:51;13.63;;;12.23;;
57551;SDS011;43379;48.160;14.036;2023-06-26T00:17:17;12.10;;;11.10;;
57551;SDS011;43379;48.160;14.036;2023-06-26T00:19:43;12.20;;;11.10;;
57551;SDS011;43379;48.160;14.036;2023-06-26T00:22:09;13.40;;;12.30;;
57551;SDS011;43379;48.160;14.036;2023-06-26T00:24:36;14.27;;;12.27;;
57551;SDS011;43379;48.160;14.036;2023-06-26T00:27:01;14.43;;;13.23;;
57551;SDS011;43379;48.160;14.036;2023-06-26T00:29:27;13.40;;;12.17;;
57551;SDS011;43379;48.160;14.036;2023-06-26T00:31:52;13.40;;;12.20;;
57551;SDS011;43379;48.160;14.036;2023-06-26T00:34:18;13.13;;;11.97;;
57551;SDS011;43379;48.160;14.036;2023-06-26T00:36:44;14.20;;;12.90;;
57551;SDS011;43379;48.160;14.036;2023-06-26T00:39:10;13.20;;;12.10;;
57551;SDS011;43379;48.160;14.036;2023-06-26T00:41:36;13.50;;;12.30;;
57551;SDS011;43379;48.160;14.036;2023-06-26T00:44:05;13.10;;;12.00;;
57551;SDS011;43379;48.160;14.036;2023-06-26T00:46:31;13.60;;;12.47;;
57551;SDS011;43379;48.160;14.036;2023-06-26T00:49:02;12.80;;;10.90;;
57551;SDS011;43379;48.160;14.036;2023-06-26T00:51:29;13.13;;;11.83;;
57551;SDS011;43379;48.160;14.036;2023-06-26T00:53:55;14.00;;;12.67;;
57551;SDS011;43379;48.160;14.036;2023-06-26T00:56:22;14.73;;;12.30;;
57551;SDS011;43379;48.160;14.036;2023-06-26T00:58:49;13.30;;;12.10;;
57551;SDS011;43379;48.160;14.036;2023-06-26T01:01:14;12.27;;;11.17;;
57551;SDS011;43379;48.160;14.036;2023-06-26T01:03:45;11.60;;;10.50;;
57551;SDS011;43379;48.160;14.036;2023-06-26T01:06:16;13.43;;;12.30;;
57551;SDS011;43379;48.160;14.036;2023-06-26T01:08:44;13.97;;;12.40;;
57551;SDS011;43379;48.160;14.036;2023-06-26T01:11:11;13.63;;;11.33;;
57551;SDS011;43379;48.160;14.036;2023-06-26T01:13:38;12.50;;;11.30;;
57551;SDS011;43379;48.160;14.036;2023-06-26T01:16:05;13.20;;;12.10;;
57551;SDS011;43379;48.160;14.036;2023-06-26T01:18:31;11.90;;;10.90;;
57551;SDS011;43379;48.160;14.036;2023-06-26T01:20:58;14.07;;;12.57;;
57551;SDS011;43379;48.160;14.036;2023-06-26T01:26:30;14.67;;;13.27;;
57551;SDS011;43379;48.160;14.036;2023-06-26T01:29:00;13.83;;;12.63;;
57551;SDS011;43379;48.160;14.036;2023-06-26T01:31:27;14.03;;;12.73;;
57551;SDS011;43379;48.160;14.036;2023-06-26T01:33:55;14.20;;;12.10;;
57551;SDS011;43379;48.160;14.036;2023-06-26T01:36:25;14.47;;;13.17;;
57551;SDS011;43379;48.160;14.036;2023-06-26T01:38:51;14.13;;;12.93;;
57551;SDS011;43379;48.160;14.036;2023-06-26T01:41:17;12.70;;;11.50;;
57551;SDS011;43379;48.160;14.036;2023-06-26T01:51:57;12.93;;;11.83;;
57551;SDS011;43379;48.160;14.036;2023-06-26T01:54:42;14.47;;;13.17;;
57551;SDS011;43379;48.160;14.036;2023-06-26T01:57:21;13.03;;;11.73;;
57551;SDS011;43379;48.160;14.036;2023-06-26T01:59:48;13.00;;;11.83;;
57551;SDS011;43379;48.160;14.036;2023-06-26T02:02:15;14.03;;;12.83;;
57551;SDS011;43379;48.160;14.036;2023-06-26T02:04:41;13.33;;;12.17;;
57551;SDS011;43379;48.160;14.036;2023-06-26T02:07:07;12.73;;;11.63;;
57551;SDS011;43379;48.160;14.036;2023-06-26T02:09:34;13.13;;;11.90;;
57551;SDS011;43379;48.160;14.036;2023-06-26T02:12:00;13.20;;;11.80;;
57551;SDS011;43379;48.160;14.036;2023-06-26T02:14:25;11.47;;;10.47;;
57551;SDS011;43379;48.160;14.036;2023-06-26T02:16:51;14.03;;;12.73;;
57551;SDS011;43379;48.160;14.036;2023-06-26T02:19:17;12.70;;;11.57;;
57551;SDS011;43379;48.160;14.036;2023-06-26T02:21:46;12.70;;;11.60;;
57551;SDS011;43379;48.160;14.036;2023-06-26T02:24:14;13.50;;;12.10;;
57551;SDS011;43379;48.160;14.036;2023-06-26T02:26:39;13.50;;;12.30;;
57551;SDS011;43379;48.160;14.036;2023-06-26T02:29:05;14.63;;;13.17;;
57551;SDS011;43379;48.160;14.036;2023-06-26T02:31:31;14.20;;;12.77;;
57551;SDS011;43379;48.160;14.036;2023-06-26T02:33:57;13.67;;;12.47;;
57551;SDS011;43379;48.160;14.036;2023-06-26T02:36:22;12.37;;;11.27;;
57551;SDS011;43379;48.160;14.036;2023-06-26T02:38:48;12.87;;;11.77;;
57551;SDS011;43379;48.160;14.036;2023-06-26T02:41:14;14.67;;;13.30;;
57551;SDS011;43379;48.160;14.036;2023-06-26T02:43:39;13.20;;;12.00;;
57551;SDS011;43379;48.160;14.036;2023-06-26T02:46:05;12.17;;;11.00;;
57551;SDS011;43379;48.160;14.036;2023-06-26T02:48:31;12.10;;;11.00;;
57551;SDS011;43379;48.160;14.036;2023-06-26T02:50:56;13.53;;;12.33;;
57551;SDS011;43379;48.160;14.036;2023-06-26T02:53:22;13.83;;;12.33;;
57551;SDS011;43379;48.160;14.036;2023-06-26T02:55:47;13.10;;;11.90;;
57551;SDS011;43379;48.160;14.036;2023-06-26T02:58:13;12.97;;;11.67;;
57551;SDS011;43379;48.160;14.036;2023-06-26T03:00:39;12.20;;;11.10;;
57551;SDS011;43379;48.160;14.036;2023-06-26T03:03:06;13.17;;;11.97;;
57551;SDS011;43379;48.160;14.036;2023-06-26T03:05:32;12.60;;;11.50;;
57551;SDS011;43379;48.160;14.036;2023-06-26T03:07:58;13.97;;;12.10;;
57551;SDS011;43379;48.160;14.036;2023-06-26T03:10:24;12.63;;;11.33;;
57551;SDS011;43379;48.160;14.036;2023-06-26T03:12:49;13.77;;;11.53;;
57551;SDS011;43379;48.160;14.036;2023-06-26T03:15:15;12.60;;;11.30;;
57551;SDS011;43379;48.160;14.036;2023-06-26T03:17:41;13.40;;;12.20;;
57551;SDS011;43379;48.160;14.036;2023-06-26T03:20:07;12.70;;;11.47;;
57551;SDS011;43379;48.160;14.036;2023-06-26T03:22:33;12.60;;;11.50;;
57551;SDS011;43379;48.160;14.036;2023-06-26T03:24:59;14.47;;;12.97;;
57551;SDS011;43379;48.160;14.036;2023-06-26T03:27:24;14.13;;;12.60;;
57551;SDS011;43379;48.160;14.036;2023-06-26T03:29:51;13.80;;;12.40;;
57551;SDS011;43379;48.160;14.036;2023-06-26T03:32:17;13.17;;;12.00;;
57551;SDS011;43379;48.160;14.036;2023-06-26T03:34:43;12.33;;;11.13;;
57551;SDS011;43379;48.160;14.036;2023-06-26T03:37:09;13.23;;;12.03;;
57551;SDS011;43379;48.160;14.036;2023-06-26T03:39:34;13.40;;;12.20;;
57551;SDS011;43379;48.160;14.036;2023-06-26T03:42:00;13.07;;;11.77;;
57551;SDS011;43379;48.160;14.036;2023-06-26T03:44:26;13.53;;;12.30;;
57551;SDS011;43379;48.160;14.036;2023-06-26T03:46:52;13.33;;;12.10;;
57551;SDS011;43379;48.160;14.036;2023-06-26T03:49:18;13.17;;;11.90;;
57551;SDS011;43379;48.160;14.036;2023-06-26T03:51:44;12.97;;;11.80;;
57551;SDS011;43379;48.160;14.036;2023-06-26T03:54:10;12.07;;;11.07;;
57551;SDS011;43379;48.160;14.036;2023-06-26T03:56:36;12.07;;;10.97;;
57551;SDS011;43379;48.160;14.036;2023-06-26T03:59:01;14.27;;;11.90;;
57551;SDS011;43379;48.160;14.036;2023-06-26T04:01:27;12.50;;;11.20;;
57551;SDS011;43379;48.160;14.036;2023-06-26T04:03:53;12.63;;;11.37;;
57551;SDS011;43379;48.160;14.036;2023-06-26T04:06:19;12.83;;;11.53;;
57551;SDS011;43379;48.160;14.036;2023-06-26T04:08:45;14.10;;;12.80;;
57551;SDS011;43379;48.160;14.036;2023-06-26T04:11:11;13.10;;;11.70;;
57551;SDS011;43379;48.160;14.036;2023-06-26T04:13:37;13.90;;;12.70;;
57551;SDS011;43379;48.160;14.036;2023-06-26T04:16:02;13.33;;;12.10;;
57551;SDS011;43379;48.160;14.036;2023-06-26T04:18:29;12.90;;;11.70;;
57551;SDS011;43379;48.160;14.036;2023-06-26T04:21:05;13.13;;;11.73;;
57551;SDS011;43379;48.160;14.036;2023-06-26T04:23:38;13.30;;;12.00;;
57551;SDS011;43379;48.160;14.036;2023-06-26T04:26:05;14.17;;;12.67;;
57551;SDS011;43379;48.160;14.036;2023-06-26T04:28:32;14.17;;;12.67;;
57551;SDS011;43379;48.160;14.036;2023-06-26T04:30:59;14.53;;;11.87;;
57551;SDS011;43379;48.160;14.036;2023-06-26T04:33:25;14.07;;;12.83;;
57551;SDS011;43379;48.160;14.036;2023-06-26T04:35:51;13.27;;;11.97;;
57551;SDS011;43379;48.160;14.036;2023-06-26T04:38:18;13.83;;;11.93;;
57551;SDS011;43379;48.160;14.036;2023-06-26T04:40:44;13.73;;;12.33;;
57551;SDS011;43379;48.160;14.036;2023-06-26T04:43:10;13.87;;;12.47;;
57551;SDS011;43379;48.160;14.036;2023-06-26T04:45:36;13.17;;;11.77;;
57551;SDS011;43379;48.160;14.036;2023-06-26T04:48:02;12.23;;;11.17;;
57551;SDS011;43379;48.160;14.036;2023-06-26T04:50:28;13.57;;;12.37;;
57551;SDS011;43379;48.160;14.036;2023-06-26T04:52:54;12.50;;;11.40;;
57551;SDS011;43379;48.160;14.036;2023-06-26T04:55:20;12.17;;;11.07;;
57551;SDS011;43379;48.160;14.036;2023-06-26T04:57:49;12.77;;;11.47;;
57551;SDS011;43379;48.160;14.036;2023-06-26T05:00:14;12.63;;;11.40;;
57551;SDS011;43379;48.160;14.036;2023-06-26T05:02:40;12.57;;;11.47;;
57551;SDS011;43379;48.160;14.036;2023-06-26T05:05:06;11.23;;;10.23;;
57551;SDS011;43379;48.160;14.036;2023-06-26T05:07:32;12.53;;;11.33;;
57551;SDS011;43379;48.160;14.036;2023-06-26T05:09:58;11.57;;;10.63;;
57551;SDS011;43379;48.160;14.036;2023-06-26T05:12:23;13.63;;;12.23;;
57551;SDS011;43379;48.160;14.036;2023-06-26T05:14:49;13.43;;;12.13;;
57551;SDS011;43379;48.160;14.036;2023-06-26T05:17:15;12.23;;;11.10;;
57551;SDS011;43379;48.160;14.036;2023-06-26T05:19:41;13.33;;;12.03;;
57551;SDS011;43379;48.160;14.036;2023-06-26T05:22:07;12.27;;;11.17;;
57551;SDS011;43379;48.160;14.036;2023-06-26T05:24:37;13.37;;;12.17;;
57551;SDS011;43379;48.160;14.036;2023-06-26T05:27:03;11.60;;;10.40;;
57551;SDS011;43379;48.160;14.036;2023-06-26T05:29:31;13.50;;;12.23;;
57551;SDS011;43379;48.160;14.036;2023-06-26T05:31:57;13.23;;;11.23;;
57551;SDS011;43379;48.160;14.036;2023-06-26T05:34:23;12.27;;;11.10;;
57551;SDS011;43379;48.160;14.036;2023-06-26T05:36:53;13.43;;;11.33;;
57551;SDS011;43379;48.160;14.036;2023-06-26T05:39:23;12.40;;;11.27;;
57551;SDS011;43379;48.160;14.036;2023-06-26T05:41:49;13.00;;;11.87;;
57551;SDS011;43379;48.160;14.036;2023-06-26T05:44:16;11.63;;;10.43;;
57551;SDS011;43379;48.160;14.036;2023-06-26T05:46:42;11.87;;;10.97;;
57551;SDS011;43379;48.160;14.036;2023-06-26T05:49:08;12.07;;;11.07;;
57551;SDS011;43379;48.160;14.036;2023-06-26T05:51:34;12.20;;;11.10;;
57551;SDS011;43379;48.160;14.036;2023-06-26T05:54:00;11.53;;;10.43;;
57551;SDS011;43379;48.160;14.036;2023-06-26T05:56:26;11.20;;;10.10;;
57551;SDS011;43379;48.160;14.036;2023-06-26T05:58:52;10.37;;;9.47;;
57551;SDS011;43379;48.160;14.036;2023-06-26T06:01:18;10.27;;;9.37;;
57551;SDS011;43379;48.160;14.036;2023-06-26T06:03:44;12.73;;;10.00;;
57551;SDS011;43379;48.160;14.036;2023-06-26T06:06:11;10.73;;;9.83;;
57551;SDS011;43379;48.160;14.036;2023-06-26T06:08:36;11.00;;;10.07;;
57551;SDS011;43379;48.160;14.036;2023-06-26T06:11:02;11.17;;;10.27;;
57551;SDS011;43379;48.160;14.036;2023-06-26T06:13:28;10.30;;;9.30;;
57551;SDS011;43379;48.160;14.036;2023-06-26T06:15:54;9.90;;;9.10;;
57551;SDS011;43379;48.160;14.036;2023-06-26T06:18:20;10.63;;;9.73;;
57551;SDS011;43379;48.160;14.036;2023-06-26T06:20:46;10.93;;;9.90;;
57551;SDS011;43379;48.160;14.036;2023-06-26T06:23:12;11.07;;;10.17;;
57551;SDS011;43379;48.160;14.036;2023-06-26T06:25:37;11.60;;;10.50;;
57551;SDS011;43379;48.160;14.036;2023-06-26T06:28:04;9.90;;;9.10;;
57551;SDS011;43379;48.160;14.036;2023-06-26T06:30:29;9.13;;;8.43;;
57551;SDS011;43379;48.160;14.036;2023-06-26T06:32:55;10.70;;;9.80;;
57551;SDS011;43379;48.160;14.036;2023-06-26T06:35:21;10.13;;;9.23;;
57551;SDS011;43379;48.160;14.036;2023-06-26T06:37:47;9.63;;;8.63;;
57551;SDS011;43379;48.160;14.036;2023-06-26T06:40:13;9.70;;;8.87;;
57551;SDS011;43379;48.160;14.036;2023-06-26T06:42:39;9.77;;;8.97;;
57551;SDS011;43379;48.160;14.036;2023-06-26T06:45:05;9.93;;;8.83;;
57551;SDS011;43379;48.160;14.036;2023-06-26T06:47:31;10.60;;;9.53;;
57551;SDS011;43379;48.160;14.036;2023-06-26T06:49:57;9.30;;;8.60;;
57551;SDS011;43379;48.160;14.036;2023-06-26T06:52:23;9.40;;;8.60;;
57551;SDS011;43379;48.160;14.036;2023-06-26T06:54:53;9.87;;;8.90;;
57551;SDS011;43379;48.160;14.036;2023-06-26T06:57:20;9.10;;;8.20;;
57551;SDS011;43379;48.160;14.036;2023-06-26T06:59:46;10.57;;;9.30;;
57551;SDS011;43379;48.160;14.036;2023-06-26T07:02:13;10.63;;;9.57;;
57551;SDS011;43379;48.160;14.036;2023-06-26T07:04:40;10.63;;;9.73;;
57551;SDS011;43379;48.160;14.036;2023-06-26T07:07:06;10.33;;;9.50;;
57551;SDS011;43379;48.160;14.036;2023-06-26T07:09:31;9.47;;;8.67;;
57551;SDS011;43379;48.160;14.036;2023-06-26T07:11:57;10.37;;;9.47;;
57551;SDS011;43379;48.160;14.036;2023-06-26T07:14:23;9.30;;;8.60;;
57551;SDS011;43379;48.160;14.036;2023-06-26T07:16:48;9.27;;;8.57;;
57551;SDS011;43379;48.160;14.036;2023-06-26T07:19:14;9.63;;;8.63;;
57551;SDS011;43379;48.160;14.036;2023-06-26T07:21:39;10.87;;;10.07;;
57551;SDS011;43379;48.160;14.036;2023-06-26T07:24:06;9.90;;;9.10;;
57551;SDS011;43379;48.160;14.036;2023-06-26T07:26:32;10.20;;;9.40;;
57551;SDS011;43379;48.160;14.036;2023-06-26T07:28:58;10.53;;;9.73;;
57551;SDS011;43379;48.160;14.036;2023-06-26T07:31:23;10.60;;;9.80;;
57551;SDS011;43379;48.160;14.036;2023-06-26T07:33:49;10.30;;;9.30;;
57551;SDS011;43379;48.160;14.036;2023-06-26T07:36:15;13.13;;;9.93;;
57551;SDS011;43379;48.160;14.036;2023-06-26T07:38:40;11.13;;;9.43;;
57551;SDS011;43379;48.160;14.036;2023-06-26T07:41:06;11.10;;;9.80;;
57551;SDS011;43379;48.160;14.036;2023-06-26T07:43:31;10.00;;;9.10;;
57551;SDS011;43379;48.160;14.036;2023-06-26T07:45:57;10.10;;;9.03;;
57551;SDS011;43379;48.160;14.036;2023-06-26T07:48:25;10.90;;;10.00;;
57551;SDS011;43379;48.160;14.036;2023-06-26T07:50:51;10.20;;;9.40;;
57551;SDS011;43379;48.160;14.036;2023-06-26T07:53:17;10.33;;;9.50;;
57551;SDS011;43379;48.160;14.036;2023-06-26T07:55:43;9.93;;;9.13;;
57551;SDS011;43379;48.160;14.036;2023-06-26T07:58:08;9.60;;;8.87;;
57551;SDS011;43379;48.160;14.036;2023-06-26T08:00:34;9.37;;;8.67;;
57551;SDS011;43379;48.160;14.036;2023-06-26T08:03:00;11.00;;;9.80;;
57551;SDS011;43379;48.160;14.036;2023-06-26T08:05:26;9.87;;;9.07;;
57551;SDS011;43379;48.160;14.036;2023-06-26T08:07:51;10.07;;;9.17;;
57551;SDS011;43379;48.160;14.036;2023-06-26T08:10:17;10.07;;;8.60;;
57551;SDS011;43379;48.160;14.036;2023-06-26T08:12:43;10.17;;;9.37;;
57551;SDS011;43379;48.160;14.036;2023-06-26T08:15:10;9.93;;;9.13;;
57551;SDS011;43379;48.160;14.036;2023-06-26T08:17:37;8.90;;;8.27;;
57551;SDS011;43379;48.160;14.036;2023-06-26T08:20:03;9.70;;;8.90;;
57551;SDS011;43379;48.160;14.036;2023-06-26T08:22:29;10.13;;;9.23;;
57551;SDS011;43379;48.160;14.036;2023-06-26T08:24:55;9.23;;;8.43;;
57551;SDS011;43379;48.160;14.036;2023-06-26T08:27:21;10.70;;;9.63;;
57551;SDS011;43379;48.160;14.036;2023-06-26T08:29:47;9.50;;;8.60;;
57551;SDS011;43379;48.160;14.036;2023-06-26T08:32:12;9.13;;;8.33;;
57551;SDS011;43379;48.160;14.036;2023-06-26T08:34:38;9.83;;;8.93;;
57551;SDS011;43379;48.160;14.036;2023-06-26T08:37:04;10.00;;;9.20;;
57551;SDS011;43379;48.160;14.036;2023-06-26T08:39:30;10.43;;;9.57;;
57551;SDS011;43379;48.160;14.036;2023-06-26T08:41:56;9.40;;;8.60;;
57551;SDS011;43379;48.160;14.036;2023-06-26T08:44:21;9.93;;;9.03;;
57551;SDS011;43379;48.160;14.036;2023-06-26T08:46:49;11.20;;;10.20;;
57551;SDS011;43379;48.160;14.036;2023-06-26T08:49:20;9.77;;;8.97;;
57551;SDS011;43379;48.160;14.036;2023-06-26T08:51:51;9.23;;;8.43;;
57551;SDS011;43379;48.160;14.036;2023-06-26T08:54:22;8.73;;;7.90;;
57551;SDS011;43379;48.160;14.036;2023-06-26T08:56:53;9.33;;;8.63;;
57551;SDS011;43379;48.160;14.036;2023-06-26T08:59:21;9.80;;;9.00;;
57551;SDS011;43379;48.160;14.036;2023-06-26T09:01:47;9.90;;;9.13;;
57551;SDS011;43379;48.160;14.036;2023-06-26T09:04:13;9.47;;;8.57;;
57551;SDS011;43379;48.160;14.036;2023-06-26T09:06:39;10.20;;;9.20;;
57551;SDS011;43379;48.160;14.036;2023-06-26T09:09:04;9.33;;;8.63;;
57551;SDS011;43379;48.160;14.036;2023-06-26T09:11:30;9.43;;;8.53;;
57551;SDS011;43379;48.160;14.036;2023-06-26T09:13:56;10.70;;;9.60;;
57551;SDS011;43379;48.160;14.036;2023-06-26T09:16:25;8.57;;;7.97;;
57551;SDS011;43379;48.160;14.036;2023-06-26T09:18:51;8.67;;;7.93;;
57551;SDS011;43379;48.160;14.036;2023-06-26T09:21:17;8.80;;;8.10;;
57551;SDS011;43379;48.160;14.036;2023-06-26T09:23:43;9.67;;;8.90;;
57551;SDS011;43379;48.160;14.036;2023-06-26T09:26:10;9.20;;;8.40;;
57551;SDS011;43379;48.160;14.036;2023-06-26T09:28:36;9.20;;;8.40;;
57551;SDS011;43379;48.160;14.036;2023-06-26T09:31:04;9.40;;;8.50;;
57551;SDS011;43379;48.160;14.036;2023-06-26T09:33:39;9.27;;;8.47;;
57551;SDS011;43379;48.160;14.036;2023-06-26T09:36:08;9.10;;;8.37;;
57551;SDS011;43379;48.160;14.036;2023-06-26T09:38:37;9.80;;;9.00;;
57551;SDS011;43379;48.160;14.036;2023-06-26T09:41:03;9.30;;;8.57;;
57551;SDS011;43379;48.160;14.036;2023-06-26T09:43:28;8.63;;;7.93;;
57551;SDS011;43379;48.160;14.036;2023-06-26T09:45:56;8.83;;;8.03;;
57551;SDS011;43379;48.160;14.036;2023-06-26T09:48:22;8.93;;;8.20;;
57551;SDS011;43379;48.160;14.036;2023-06-26T09:50:47;9.17;;;8.40;;
57551;SDS011;43379;48.160;14.036;2023-06-26T09:53:15;9.37;;;8.63;;
57551;SDS011;43379;48.160;14.036;2023-06-26T09:55:43;9.87;;;8.73;;
57551;SDS011;43379;48.160;14.036;2023-06-26T09:58:12;8.63;;;7.90;;
57551;SDS011;43379;48.160;14.036;2023-06-26T10:00:40;8.47;;;7.67;;
57551;SDS011;43379;48.160;14.036;2023-06-26T10:03:07;9.47;;;8.77;;
57551;SDS011;43379;48.160;14.036;2023-06-26T10:05:33;9.77;;;8.97;;
57551;SDS011;43379;48.160;14.036;2023-06-26T10:07:59;9.60;;;8.80;;
57551;SDS011;43379;48.160;14.036;2023-06-26T10:10:26;8.97;;;7.97;;
57551;SDS011;43379;48.160;14.036;2023-06-26T10:12:54;8.43;;;7.83;;
57551;SDS011;43379;48.160;14.036;2023-06-26T10:15:24;8.87;;;8.27;;
57551;SDS011;43379;48.160;14.036;2023-06-26T10:17:52;8.33;;;7.50;;
57551;SDS011;43379;48.160;14.036;2023-06-26T10:20:21;8.43;;;7.67;;
57551;SDS011;43379;48.160;14.036;2023-06-26T10:22:47;7.80;;;7.20;;
57551;SDS011;43379;48.160;14.036;2023-06-26T10:25:18;7.97;;;7.27;;
57551;SDS011;43379;48.160;14.036;2023-06-26T10:27:49;8.77;;;8.07;;
57551;SDS011;43379;48.160;14.036;2023-06-26T10:30:20;8.40;;;7.60;;
57551;SDS011;43379;48.160;14.036;2023-06-26T10:32:49;8.47;;;7.77;;
57551;SDS011;43379;48.160;14.036;2023-06-26T10:35:15;9.77;;;8.87;;
57551;SDS011;43379;48.160;14.036;2023-06-26T10:37:45;8.30;;;7.70;;
57551;SDS011;43379;48.160;14.036;2023-06-26T10:41:01;8.67;;;7.90;;
57551;SDS011;43379;48.160;14.036;2023-06-26T10:43:11;8.00;;;7.40;;
57551;SDS011;43379;48.160;14.036;2023-06-26T10:45:45;8.90;;;8.10;;
57551;SDS011;43379;48.160;14.036;2023-06-26T10:48:14;8.67;;;8.00;;
57551;SDS011;43379;48.160;14.036;2023-06-26T10:50:40;8.33;;;7.63;;
57551;SDS011;43379;48.160;14.036;2023-06-26T10:55:37;8.90;;;8.20;;
57551;SDS011;43379;48.160;14.036;2023-06-26T11:06:22;7.37;;;6.87;;
57551;SDS011;43379;48.160;14.036;2023-06-26T11:08:49;8.00;;;7.30;;
57551;SDS011;43379;48.160;14.036;2023-06-26T11:11:16;7.93;;;7.33;;
57551;SDS011;43379;48.160;14.036;2023-06-26T11:13:44;8.27;;;7.67;;
57551;SDS011;43379;48.160;14.036;2023-06-26T11:16:14;8.27;;;7.57;;
57551;SDS011;43379;48.160;14.036;2023-06-26T11:18:40;8.20;;;7.50;;
57551;SDS011;43379;48.160;14.036;2023-06-26T11:21:10;7.27;;;6.67;;
57551;SDS011;43379;48.160;14.036;2023-06-26T11:23:39;8.07;;;7.47;;
57551;SDS011;43379;48.160;14.036;2023-06-26T11:26:15;8.93;;;8.03;;
57551;SDS011;43379;48.160;14.036;2023-06-26T11:31:30;7.80;;;7.20;;
57551;SDS011;43379;48.160;14.036;2023-06-26T11:33:59;9.07;;;8.37;;
57551;SDS011;43379;48.160;14.036;2023-06-26T11:36:26;7.43;;;6.83;;
57551;SDS011;43379;48.160;14.036;2023-06-26T11:38:56;8.97;;;8.27;;
57551;SDS011;43379;48.160;14.036;2023-06-26T11:41:26;7.80;;;7.20;;
57551;SDS011;43379;48.160;14.036;2023-06-26T11:43:55;7.83;;;7.33;;
57551;SDS011;43379;48.160;14.036;2023-06-26T11:46:25;7.87;;;7.17;;
57551;SDS011;43379;48.160;14.036;2023-06-26T11:48:50;8.57;;;7.97;;
57551;SDS011;43379;48.160;14.036;2023-06-26T11:51:17;8.00;;;7.40;;
57551;SDS011;43379;48.160;14.036;2023-06-26T11:53:43;7.90;;;7.20;;
57551;SDS011;43379;48.160;14.036;2023-06-26T11:56:13;7.77;;;7.17;;
57551;SDS011;43379;48.160;14.036;2023-06-26T12:01:22;8.23;;;7.63;;
57551;SDS011;43379;48.160;14.036;2023-06-26T12:03:49;8.70;;;8.10;;
57551;SDS011;43379;48.160;14.036;2023-06-26T12:06:15;7.33;;;6.83;;
57551;SDS011;43379;48.160;14.036;2023-06-26T12:08:41;8.80;;;8.10;;
57551;SDS011;43379;48.160;14.036;2023-06-26T12:11:08;7.27;;;6.63;;
57551;SDS011;43379;48.160;14.036;2023-06-26T12:13:34;8.00;;;7.40;;
57551;SDS011;43379;48.160;14.036;2023-06-26T12:16:00;8.90;;;8.27;;
57551;SDS011;43379;48.160;14.036;2023-06-26T12:18:26;8.50;;;7.70;;
57551;SDS011;43379;48.160;14.036;2023-06-26T12:20:59;8.60;;;8.00;;
57551;SDS011;43379;48.160;14.036;2023-06-26T12:23:31;8.17;;;7.57;;
57551;SDS011;43379;48.160;14.036;2023-06-26T12:26:20;8.37;;;7.67;;
57551;SDS011;43379;48.160;14.036;2023-06-26T12:28:46;9.03;;;7.90;;
57551;SDS011;43379;48.160;14.036;2023-06-26T12:31:13;8.63;;;7.87;;
57551;SDS011;43379;48.160;14.036;2023-06-26T12:33:43;8.50;;;7.80;;
57551;SDS011;43379;48.160;14.036;2023-06-26T12:36:12;9.10;;;8.50;;
57551;SDS011;43379;48.160;14.036;2023-06-26T12:38:39;8.60;;;7.80;;
57551;SDS011;43379;48.160;14.036;2023-06-26T12:41:13;8.10;;;7.40;;
57551;SDS011;43379;48.160;14.036;2023-06-26T12:43:42;6.60;;;6.10;;
57551;SDS011;43379;48.160;14.036;2023-06-26T12:46:08;8.70;;;7.90;;
57551;SDS011;43379;48.160;14.036;2023-06-26T12:48:41;7.70;;;7.17;;
57551;SDS011;43379;48.160;14.036;2023-06-26T12:51:17;7.27;;;6.77;;
57551;SDS011;43379;48.160;14.036;2023-06-26T12:53:43;8.13;;;7.47;;
57551;SDS011;43379;48.160;14.036;2023-06-26T12:56:09;7.27;;;6.67;;
57551;SDS011;43379;48.160;14.036;2023-06-26T12:58:36;7.47;;;6.87;;
57551;SDS011;43379;48.160;14.036;2023-06-26T13:01:06;7.43;;;6.80;;
57551;SDS011;43379;48.160;14.036;2023-06-26T13:03:38;7.40;;;6.90;;
57551;SDS011;43379;48.160;14.036;2023-06-26T13:06:05;7.73;;;7.23;;
57551;SDS011;43379;48.160;14.036;2023-06-26T13:08:30;7.77;;;7.07;;
57551;SDS011;43379;48.160;14.036;2023-06-26T13:10:56;7.43;;;6.93;;
57551;SDS011;43379;48.160;14.036;2023-06-26T13:13:22;7.57;;;6.90;;
57551;SDS011;43379;48.160;14.036;2023-06-26T13:15:47;6.73;;;6.23;;
57551;SDS011;43379;48.160;14.036;2023-06-26T13:18:13;6.60;;;6.10;;
57551;SDS011;43379;48.160;14.036;2023-06-26T13:20:38;7.20;;;6.60;;
57551;SDS011;43379;48.160;14.036;2023-06-26T13:23:04;7.20;;;6.60;;
57551;SDS011;43379;48.160;14.036;2023-06-26T13:25:30;7.40;;;6.80;;
57551;SDS011;43379;48.160;14.036;2023-06-26T13:27:55;7.03;;;6.53;;
57551;SDS011;43379;48.160;14.036;2023-06-26T13:30:21;8.30;;;7.50;;
57551;SDS011;43379;48.160;14.036;2023-06-26T13:32:47;6.57;;;6.00;;
57551;SDS011;43379;48.160;14.036;2023-06-26T13:35:12;6.30;;;5.80;;
57551;SDS011;43379;48.160;14.036;2023-06-26T13:37:38;7.60;;;7.00;;
57551;SDS011;43379;48.160;14.036;2023-06-26T13:40:06;7.00;;;6.50;;
57551;SDS011;43379;48.160;14.036;2023-06-26T13:42:32;7.80;;;7.00;;
57551;SDS011;43379;48.160;14.036;2023-06-26T13:44:58;6.90;;;6.30;;
57551;SDS011;43379;48.160;14.036;2023-06-26T13:47:23;7.07;;;6.47;;
57551;SDS011;43379;48.160;14.036;2023-06-26T13:49:49;6.93;;;6.43;;
57551;SDS011;43379;48.160;14.036;2023-06-26T13:52:15;7.77;;;7.17;;
57551;SDS011;43379;48.160;14.036;2023-06-26T13:54:40;10.93;;;6.50;;
57551;SDS011;43379;48.160;14.036;2023-06-26T13:57:07;7.03;;;6.40;;
57551;SDS011;43379;48.160;14.036;2023-06-26T13:59:33;6.80;;;6.30;;
57551;SDS011;43379;48.160;14.036;2023-06-26T14:02:01;7.43;;;6.60;;
57551;SDS011;43379;48.160;14.036;2023-06-26T14:04:27;7.20;;;6.60;;
57551;SDS011;43379;48.160;14.036;2023-06-26T14:06:53;7.23;;;6.53;;
57551;SDS011;43379;48.160;14.036;2023-06-26T14:09:18;6.87;;;6.37;;
57551;SDS011;43379;48.160;14.036;2023-06-26T14:11:44;7.00;;;6.40;;
57551;SDS011;43379;48.160;14.036;2023-06-26T14:14:10;7.47;;;6.80;;
57551;SDS011;43379;48.160;14.036;2023-06-26T14:16:35;7.10;;;6.60;;
57551;SDS011;43379;48.160;14.036;2023-06-26T14:19:01;7.17;;;6.67;;
57551;SDS011;43379;48.160;14.036;2023-06-26T14:21:27;7.80;;;7.20;;
57551;SDS011;43379;48.160;14.036;2023-06-26T14:23:53;6.87;;;6.37;;
57551;SDS011;43379;48.160;14.036;2023-06-26T14:26:20;7.20;;;6.60;;
57551;SDS011;43379;48.160;14.036;2023-06-26T14:28:45;7.73;;;7.03;;
57551;SDS011;43379;48.160;14.036;2023-06-26T14:31:11;6.93;;;6.40;;
57551;SDS011;43379;48.160;14.036;2023-06-26T14:33:37;7.77;;;7.07;;
57551;SDS011;43379;48.160;14.036;2023-06-26T14:36:04;6.13;;;5.73;;
57551;SDS011;43379;48.160;14.036;2023-06-26T14:38:30;6.40;;;5.90;;
57551;SDS011;43379;48.160;14.036;2023-06-26T14:40:55;7.80;;;7.23;;
57551;SDS011;43379;48.160;14.036;2023-06-26T14:43:21;7.27;;;6.70;;
57551;SDS011;43379;48.160;14.036;2023-06-26T14:45:47;7.03;;;6.43;;